sensor_id;sensor_type;location;lat;lon;timestamp;P1;durP1;ratioP1;P2;durP2;ratioP2
77109;SDS011;66062;52.464;16.922;2023-08-06T00:01:46;6.35;;;3.45;;
77109;SDS011;66062;52.464;16.922;2023-08-06T00:04:12;5.60;;;3.40;;
77109;SDS011;66062;52.464;16.922;2023-08-06T00:06:37;7.03;;;4.20;;
77109;SDS011;66062;52.464;16.922;2023-08-06T00:09:03;5.78;;;3.45;;
77109;SDS011;66062;52.464;16.922;2023-08-06T00:11:29;5.70;;;3.67;;
77109;SDS011;66062;52.464;16.922;2023-08-06T00:13:54;7.43;;;4.13;;
77109;SDS011;66062;52.464;16.922;2023-08-06T00:16:19;6.30;;;3.60;;
77109;SDS011;66062;52.464;16.922;2023-08-06T00:18:45;7.17;;;3.80;;
77109;SDS011;66062;52.464;16.922;2023-08-06T00:21:10;7.68;;;3.45;;
77109;SDS011;66062;52.464;16.922;2023-08-06T00:23:37;5.82;;;3.67;;
77109;SDS011;66062;52.464;16.922;2023-08-06T00:26:03;5.00;;;3.30;;
77109;SDS011;66062;52.464;16.922;2023-08-06T00:28:28;9.95;;;4.35;;
77109;SDS011;66062;52.464;16.922;2023-08-06T00:30:54;4.72;;;3.63;;
77109;SDS011;66062;52.464;16.922;2023-08-06T00:33:21;9.73;;;4.05;;
77109;SDS011;66062;52.464;16.922;2023-08-06T00:35:47;5.18;;;3.67;;
77109;SDS011;66062;52.464;16.922;2023-08-06T00:38:12;7.72;;;4.28;;
77109;SDS011;66062;52.464;16.922;2023-08-06T00:40:38;7.70;;;3.95;;
77109;SDS011;66062;52.464;16.922;2023-08-06T00:43:03;6.00;;;3.90;;
77109;SDS011;66062;52.464;16.922;2023-08-06T00:45:28;7.75;;;3.92;;
77109;SDS011;66062;52.464;16.922;2023-08-06T00:47:55;6.53;;;3.80;;
77109;SDS011;66062;52.464;16.922;2023-08-06T00:50:21;6.18;;;4.35;;
77109;SDS011;66062;52.464;16.922;2023-08-06T00:52:48;7.18;;;4.38;;
77109;SDS011;66062;52.464;16.922;2023-08-06T00:55:14;6.53;;;3.92;;
77109;SDS011;66062;52.464;16.922;2023-08-06T00:57:40;6.32;;;4.53;;
77109;SDS011;66062;52.464;16.922;2023-08-06T01:00:06;6.00;;;4.88;;
77109;SDS011;66062;52.464;16.922;2023-08-06T01:02:32;9.48;;;4.20;;
77109;SDS011;66062;52.464;16.922;2023-08-06T01:04:58;7.80;;;4.40;;
77109;SDS011;66062;52.464;16.922;2023-08-06T01:10:23;8.77;;;4.18;;
77109;SDS011;66062;52.464;16.922;2023-08-06T01:15:49;8.88;;;4.65;;
77109;SDS011;66062;52.464;16.922;2023-08-06T01:18:19;8.45;;;4.43;;
77109;SDS011;66062;52.464;16.922;2023-08-06T01:20:44;8.63;;;4.60;;
77109;SDS011;66062;52.464;16.922;2023-08-06T01:23:10;5.78;;;4.05;;
77109;SDS011;66062;52.464;16.922;2023-08-06T01:25:37;7.03;;;4.22;;
77109;SDS011;66062;52.464;16.922;2023-08-06T01:28:11;6.88;;;3.92;;
77109;SDS011;66062;52.464;16.922;2023-08-06T01:30:43;6.93;;;3.85;;
77109;SDS011;66062;52.464;16.922;2023-08-06T01:33:14;7.60;;;5.38;;
77109;SDS011;66062;52.464;16.922;2023-08-06T01:35:44;11.02;;;4.45;;
77109;SDS011;66062;52.464;16.922;2023-08-06T01:38:11;7.03;;;3.55;;
77109;SDS011;66062;52.464;16.922;2023-08-06T01:40:37;4.65;;;3.08;;
77109;SDS011;66062;52.464;16.922;2023-08-06T01:43:02;5.45;;;3.00;;
77109;SDS011;66062;52.464;16.922;2023-08-06T01:45:28;4.72;;;3.13;;
77109;SDS011;66062;52.464;16.922;2023-08-06T01:47:53;4.40;;;2.87;;
77109;SDS011;66062;52.464;16.922;2023-08-06T01:50:18;4.88;;;3.15;;
77109;SDS011;66062;52.464;16.922;2023-08-06T01:52:44;4.95;;;3.13;;
77109;SDS011;66062;52.464;16.922;2023-08-06T01:55:09;5.47;;;2.80;;
77109;SDS011;66062;52.464;16.922;2023-08-06T01:57:34;6.60;;;2.97;;
77109;SDS011;66062;52.464;16.922;2023-08-06T02:00:00;5.00;;;3.22;;
77109;SDS011;66062;52.464;16.922;2023-08-06T02:02:25;6.88;;;4.03;;
77109;SDS011;66062;52.464;16.922;2023-08-06T02:04:51;4.68;;;2.80;;
77109;SDS011;66062;52.464;16.922;2023-08-06T02:07:16;6.07;;;2.80;;
77109;SDS011;66062;52.464;16.922;2023-08-06T02:09:41;4.05;;;2.55;;
77109;SDS011;66062;52.464;16.922;2023-08-06T02:12:07;3.28;;;2.30;;
77109;SDS011;66062;52.464;16.922;2023-08-06T02:14:33;4.20;;;2.40;;
77109;SDS011;66062;52.464;16.922;2023-08-06T02:16:58;3.47;;;2.42;;
77109;SDS011;66062;52.464;16.922;2023-08-06T02:19:23;4.25;;;2.38;;
77109;SDS011;66062;52.464;16.922;2023-08-06T02:21:49;4.45;;;1.80;;
77109;SDS011;66062;52.464;16.922;2023-08-06T02:24:14;3.40;;;1.77;;
77109;SDS011;66062;52.464;16.922;2023-08-06T02:26:39;3.10;;;2.10;;
77109;SDS011;66062;52.464;16.922;2023-08-06T02:29:05;4.10;;;1.90;;
77109;SDS011;66062;52.464;16.922;2023-08-06T02:31:30;4.05;;;2.00;;
77109;SDS011;66062;52.464;16.922;2023-08-06T02:33:55;4.80;;;1.80;;
77109;SDS011;66062;52.464;16.922;2023-08-06T02:36:22;2.88;;;1.60;;
77109;SDS011;66062;52.464;16.922;2023-08-06T02:38:47;2.97;;;2.00;;
77109;SDS011;66062;52.464;16.922;2023-08-06T02:41:13;2.63;;;1.55;;
77109;SDS011;66062;52.464;16.922;2023-08-06T02:43:38;2.90;;;1.63;;
77109;SDS011;66062;52.464;16.922;2023-08-06T02:46:03;3.65;;;1.80;;
77109;SDS011;66062;52.464;16.922;2023-08-06T02:48:29;4.50;;;1.95;;
77109;SDS011;66062;52.464;16.922;2023-08-06T02:50:58;2.70;;;1.63;;
77109;SDS011;66062;52.464;16.922;2023-08-06T02:53:26;3.42;;;1.60;;
77109;SDS011;66062;52.464;16.922;2023-08-06T02:55:52;4.43;;;1.90;;
77109;SDS011;66062;52.464;16.922;2023-08-06T02:58:17;3.03;;;1.30;;
77109;SDS011;66062;52.464;16.922;2023-08-06T03:00:47;3.25;;;1.65;;
77109;SDS011;66062;52.464;16.922;2023-08-06T03:03:24;2.55;;;1.50;;
77109;SDS011;66062;52.464;16.922;2023-08-06T03:05:52;3.28;;;1.52;;
77109;SDS011;66062;52.464;16.922;2023-08-06T03:08:18;2.67;;;1.48;;
77109;SDS011;66062;52.464;16.922;2023-08-06T03:10:47;2.55;;;1.33;;
77109;SDS011;66062;52.464;16.922;2023-08-06T03:13:16;3.63;;;1.50;;
77109;SDS011;66062;52.464;16.922;2023-08-06T03:15:42;3.38;;;1.60;;
77109;SDS011;66062;52.464;16.922;2023-08-06T03:18:08;5.75;;;1.60;;
77109;SDS011;66062;52.464;16.922;2023-08-06T03:20:33;2.30;;;1.10;;
77109;SDS011;66062;52.464;16.922;2023-08-06T03:22:59;2.60;;;1.48;;
77109;SDS011;66062;52.464;16.922;2023-08-06T03:25:24;2.17;;;1.30;;
77109;SDS011;66062;52.464;16.922;2023-08-06T03:27:50;2.63;;;1.25;;
77109;SDS011;66062;52.464;16.922;2023-08-06T03:30:15;1.83;;;1.17;;
77109;SDS011;66062;52.464;16.922;2023-08-06T03:32:41;2.45;;;1.13;;
77109;SDS011;66062;52.464;16.922;2023-08-06T03:35:06;2.53;;;1.40;;
77109;SDS011;66062;52.464;16.922;2023-08-06T03:37:32;2.25;;;1.30;;
77109;SDS011;66062;52.464;16.922;2023-08-06T03:39:57;2.03;;;1.17;;
77109;SDS011;66062;52.464;16.922;2023-08-06T03:42:22;1.90;;;1.10;;
77109;SDS011;66062;52.464;16.922;2023-08-06T03:44:48;2.53;;;1.38;;
77109;SDS011;66062;52.464;16.922;2023-08-06T03:47:13;2.33;;;1.45;;
77109;SDS011;66062;52.464;16.922;2023-08-06T03:49:39;2.78;;;1.23;;
77109;SDS011;66062;52.464;16.922;2023-08-06T03:52:05;3.95;;;1.02;;
77109;SDS011;66062;52.464;16.922;2023-08-06T03:54:30;2.03;;;1.30;;
77109;SDS011;66062;52.464;16.922;2023-08-06T03:56:56;2.17;;;1.25;;
77109;SDS011;66062;52.464;16.922;2023-08-06T03:59:21;4.57;;;1.13;;
77109;SDS011;66062;52.464;16.922;2023-08-06T04:01:46;4.80;;;1.45;;
77109;SDS011;66062;52.464;16.922;2023-08-06T04:04:12;2.58;;;1.50;;
77109;SDS011;66062;52.464;16.922;2023-08-06T04:06:37;2.50;;;0.93;;
77109;SDS011;66062;52.464;16.922;2023-08-06T04:09:03;4.32;;;2.05;;
77109;SDS011;66062;52.464;16.922;2023-08-06T04:11:28;2.60;;;1.02;;
77109;SDS011;66062;52.464;16.922;2023-08-06T04:13:54;1.88;;;1.05;;
77109;SDS011;66062;52.464;16.922;2023-08-06T04:16:20;2.58;;;0.95;;
77109;SDS011;66062;52.464;16.922;2023-08-06T04:18:46;4.63;;;1.80;;
77109;SDS011;66062;52.464;16.922;2023-08-06T04:21:11;2.03;;;1.08;;
77109;SDS011;66062;52.464;16.922;2023-08-06T04:23:37;2.20;;;0.82;;
77109;SDS011;66062;52.464;16.922;2023-08-06T04:26:02;5.53;;;1.00;;
77109;SDS011;66062;52.464;16.922;2023-08-06T04:28:28;2.13;;;0.90;;
77109;SDS011;66062;52.464;16.922;2023-08-06T04:30:53;2.20;;;1.00;;
77109;SDS011;66062;52.464;16.922;2023-08-06T04:33:19;2.58;;;1.02;;
77109;SDS011;66062;52.464;16.922;2023-08-06T04:35:45;1.27;;;0.68;;
77109;SDS011;66062;52.464;16.922;2023-08-06T04:38:11;1.63;;;0.85;;
77109;SDS011;66062;52.464;16.922;2023-08-06T04:40:37;1.35;;;0.57;;
77109;SDS011;66062;52.464;16.922;2023-08-06T04:43:02;2.10;;;0.90;;
77109;SDS011;66062;52.464;16.922;2023-08-06T04:45:28;1.45;;;0.68;;
77109;SDS011;66062;52.464;16.922;2023-08-06T04:47:53;1.83;;;0.65;;
77109;SDS011;66062;52.464;16.922;2023-08-06T04:50:22;2.13;;;0.60;;
77109;SDS011;66062;52.464;16.922;2023-08-06T04:52:47;2.15;;;0.68;;
77109;SDS011;66062;52.464;16.922;2023-08-06T04:55:12;2.10;;;0.85;;
77109;SDS011;66062;52.464;16.922;2023-08-06T04:57:38;1.67;;;0.88;;
77109;SDS011;66062;52.464;16.922;2023-08-06T05:00:03;1.40;;;0.60;;
77109;SDS011;66062;52.464;16.922;2023-08-06T05:02:30;2.00;;;0.60;;
77109;SDS011;66062;52.464;16.922;2023-08-06T05:07:22;2.55;;;1.10;;
77109;SDS011;66062;52.464;16.922;2023-08-06T05:09:48;3.03;;;0.75;;
77109;SDS011;66062;52.464;16.922;2023-08-06T05:12:13;2.15;;;0.80;;
77109;SDS011;66062;52.464;16.922;2023-08-06T05:14:38;2.53;;;0.73;;
77109;SDS011;66062;52.464;16.922;2023-08-06T05:17:04;3.42;;;0.82;;
77109;SDS011;66062;52.464;16.922;2023-08-06T05:19:29;1.42;;;0.75;;
77109;SDS011;66062;52.464;16.922;2023-08-06T05:21:55;1.92;;;0.77;;
77109;SDS011;66062;52.464;16.922;2023-08-06T05:24:20;1.42;;;0.50;;
77109;SDS011;66062;52.464;16.922;2023-08-06T05:26:45;1.20;;;0.60;;
77109;SDS011;66062;52.464;16.922;2023-08-06T05:29:12;1.88;;;0.60;;
77109;SDS011;66062;52.464;16.922;2023-08-06T05:31:38;1.48;;;0.50;;
77109;SDS011;66062;52.464;16.922;2023-08-06T05:34:03;1.10;;;0.40;;
77109;SDS011;66062;52.464;16.922;2023-08-06T05:36:28;1.13;;;0.50;;
77109;SDS011;66062;52.464;16.922;2023-08-06T05:38:54;2.70;;;0.63;;
77109;SDS011;66062;52.464;16.922;2023-08-06T05:41:19;4.55;;;0.73;;
77109;SDS011;66062;52.464;16.922;2023-08-06T05:43:44;2.65;;;0.40;;
77109;SDS011;66062;52.464;16.922;2023-08-06T05:46:10;1.83;;;0.45;;
77109;SDS011;66062;52.464;16.922;2023-08-06T05:48:36;3.58;;;0.70;;
77109;SDS011;66062;52.464;16.922;2023-08-06T05:51:01;1.58;;;0.30;;
77109;SDS011;66062;52.464;16.922;2023-08-06T05:53:26;0.90;;;0.30;;
77109;SDS011;66062;52.464;16.922;2023-08-06T05:55:52;1.02;;;0.38;;
77109;SDS011;66062;52.464;16.922;2023-08-06T05:58:17;1.38;;;0.30;;
77109;SDS011;66062;52.464;16.922;2023-08-06T06:00:45;1.75;;;0.35;;
77109;SDS011;66062;52.464;16.922;2023-08-06T06:03:10;0.82;;;0.40;;
77109;SDS011;66062;52.464;16.922;2023-08-06T06:05:37;1.13;;;0.30;;
77109;SDS011;66062;52.464;16.922;2023-08-06T06:08:04;1.10;;;0.40;;
77109;SDS011;66062;52.464;16.922;2023-08-06T06:10:29;1.70;;;0.98;;
77109;SDS011;66062;52.464;16.922;2023-08-06T06:12:54;2.20;;;0.90;;
77109;SDS011;66062;52.464;16.922;2023-08-06T06:15:20;1.63;;;0.60;;
77109;SDS011;66062;52.464;16.922;2023-08-06T06:17:45;1.20;;;0.65;;
77109;SDS011;66062;52.464;16.922;2023-08-06T06:20:11;1.10;;;0.50;;
77109;SDS011;66062;52.464;16.922;2023-08-06T06:22:37;2.38;;;0.88;;
77109;SDS011;66062;52.464;16.922;2023-08-06T06:25:03;1.52;;;0.70;;
77109;SDS011;66062;52.464;16.922;2023-08-06T06:27:28;1.20;;;0.50;;
77109;SDS011;66062;52.464;16.922;2023-08-06T06:29:54;1.27;;;0.52;;
77109;SDS011;66062;52.464;16.922;2023-08-06T06:32:19;1.52;;;0.40;;
77109;SDS011;66062;52.464;16.922;2023-08-06T06:34:45;1.23;;;0.32;;
77109;SDS011;66062;52.464;16.922;2023-08-06T06:37:11;0.93;;;0.65;;
77109;SDS011;66062;52.464;16.922;2023-08-06T06:39:36;1.20;;;0.30;;
77109;SDS011;66062;52.464;16.922;2023-08-06T06:42:02;1.00;;;0.50;;
77109;SDS011;66062;52.464;16.922;2023-08-06T06:44:27;0.80;;;0.30;;
77109;SDS011;66062;52.464;16.922;2023-08-06T06:46:53;0.88;;;0.40;;
77109;SDS011;66062;52.464;16.922;2023-08-06T06:49:18;1.35;;;0.57;;
77109;SDS011;66062;52.464;16.922;2023-08-06T06:51:43;1.00;;;0.30;;
77109;SDS011;66062;52.464;16.922;2023-08-06T06:54:09;0.85;;;0.30;;
77109;SDS011;66062;52.464;16.922;2023-08-06T06:56:34;1.15;;;0.32;;
77109;SDS011;66062;52.464;16.922;2023-08-06T06:59:00;1.33;;;0.55;;
77109;SDS011;66062;52.464;16.922;2023-08-06T07:01:25;1.60;;;0.52;;
77109;SDS011;66062;52.464;16.922;2023-08-06T07:03:51;2.55;;;0.30;;
77109;SDS011;66062;52.464;16.922;2023-08-06T07:06:16;0.85;;;0.30;;
77109;SDS011;66062;52.464;16.922;2023-08-06T07:08:43;0.82;;;0.22;;
77109;SDS011;66062;52.464;16.922;2023-08-06T07:11:09;1.30;;;0.40;;
77109;SDS011;66062;52.464;16.922;2023-08-06T07:13:34;2.08;;;1.08;;
77109;SDS011;66062;52.464;16.922;2023-08-06T07:15:59;0.75;;;0.20;;
77109;SDS011;66062;52.464;16.922;2023-08-06T07:18:25;1.23;;;0.55;;
77109;SDS011;66062;52.464;16.922;2023-08-06T07:20:51;1.10;;;0.57;;
77109;SDS011;66062;52.464;16.922;2023-08-06T07:23:20;0.90;;;0.40;;
77109;SDS011;66062;52.464;16.922;2023-08-06T07:25:47;0.70;;;0.50;;
77109;SDS011;66062;52.464;16.922;2023-08-06T07:28:13;2.47;;;1.17;;
77109;SDS011;66062;52.464;16.922;2023-08-06T07:30:39;0.93;;;0.43;;
77109;SDS011;66062;52.464;16.922;2023-08-06T07:33:05;1.08;;;0.70;;
77109;SDS011;66062;52.464;16.922;2023-08-06T07:35:31;0.90;;;0.30;;
77109;SDS011;66062;52.464;16.922;2023-08-06T07:37:56;0.70;;;0.43;;
77109;SDS011;66062;52.464;16.922;2023-08-06T07:40:22;1.50;;;0.60;;
77109;SDS011;66062;52.464;16.922;2023-08-06T07:42:47;0.95;;;0.30;;
77109;SDS011;66062;52.464;16.922;2023-08-06T07:45:13;0.77;;;0.35;;
77109;SDS011;66062;52.464;16.922;2023-08-06T07:47:39;0.70;;;0.30;;
77109;SDS011;66062;52.464;16.922;2023-08-06T07:50:04;1.05;;;0.20;;
77109;SDS011;66062;52.464;16.922;2023-08-06T07:52:30;0.85;;;0.40;;
77109;SDS011;66062;52.464;16.922;2023-08-06T07:54:56;0.68;;;0.20;;
77109;SDS011;66062;52.464;16.922;2023-08-06T07:57:21;1.38;;;0.20;;
77109;SDS011;66062;52.464;16.922;2023-08-06T07:59:46;1.45;;;0.38;;
77109;SDS011;66062;52.464;16.922;2023-08-06T08:02:12;0.50;;;0.20;;
77109;SDS011;66062;52.464;16.922;2023-08-06T08:04:37;0.95;;;0.30;;
77109;SDS011;66062;52.464;16.922;2023-08-06T08:07:03;1.15;;;0.20;;
77109;SDS011;66062;52.464;16.922;2023-08-06T08:09:28;1.77;;;0.70;;
77109;SDS011;66062;52.464;16.922;2023-08-06T08:11:55;3.53;;;0.40;;
77109;SDS011;66062;52.464;16.922;2023-08-06T08:14:20;24.58;;;12.18;;
77109;SDS011;66062;52.464;16.922;2023-08-06T08:16:46;1.00;;;0.20;;
77109;SDS011;66062;52.464;16.922;2023-08-06T08:19:11;2.10;;;0.80;;
77109;SDS011;66062;52.464;16.922;2023-08-06T08:21:37;0.90;;;0.22;;
77109;SDS011;66062;52.464;16.922;2023-08-06T08:24:04;0.52;;;0.20;;
77109;SDS011;66062;52.464;16.922;2023-08-06T08:26:30;1.02;;;0.30;;
77109;SDS011;66062;52.464;16.922;2023-08-06T08:28:56;2.88;;;0.45;;
77109;SDS011;66062;52.464;16.922;2023-08-06T08:31:22;1.63;;;0.35;;
77109;SDS011;66062;52.464;16.922;2023-08-06T08:33:47;1.55;;;0.88;;
77109;SDS011;66062;52.464;16.922;2023-08-06T08:36:13;2.55;;;0.98;;
77109;SDS011;66062;52.464;16.922;2023-08-06T08:38:38;2.80;;;0.50;;
77109;SDS011;66062;52.464;16.922;2023-08-06T08:41:03;5.55;;;2.75;;
77109;SDS011;66062;52.464;16.922;2023-08-06T08:43:29;1.50;;;0.40;;
77109;SDS011;66062;52.464;16.922;2023-08-06T08:45:56;0.93;;;0.22;;
77109;SDS011;66062;52.464;16.922;2023-08-06T08:48:24;1.50;;;0.20;;
77109;SDS011;66062;52.464;16.922;2023-08-06T08:50:51;2.78;;;0.40;;
77109;SDS011;66062;52.464;16.922;2023-08-06T08:53:16;1.52;;;0.32;;
77109;SDS011;66062;52.464;16.922;2023-08-06T08:55:43;0.55;;;0.20;;
77109;SDS011;66062;52.464;16.922;2023-08-06T09:00:35;0.93;;;0.40;;
77109;SDS011;66062;52.464;16.922;2023-08-06T09:03:01;0.80;;;0.32;;
77109;SDS011;66062;52.464;16.922;2023-08-06T09:05:31;1.48;;;0.43;;
77109;SDS011;66062;52.464;16.922;2023-08-06T09:08:00;0.77;;;0.28;;
77109;SDS011;66062;52.464;16.922;2023-08-06T09:10:27;0.93;;;0.20;;
77109;SDS011;66062;52.464;16.922;2023-08-06T09:12:53;0.82;;;0.30;;
77109;SDS011;66062;52.464;16.922;2023-08-06T09:15:23;2.53;;;0.20;;
77109;SDS011;66062;52.464;16.922;2023-08-06T09:17:49;1.02;;;0.30;;
77109;SDS011;66062;52.464;16.922;2023-08-06T09:20:15;1.55;;;0.22;;
77109;SDS011;66062;52.464;16.922;2023-08-06T09:22:41;0.60;;;0.10;;
77109;SDS011;66062;52.464;16.922;2023-08-06T09:25:07;2.67;;;0.95;;
77109;SDS011;66062;52.464;16.922;2023-08-06T09:27:36;0.82;;;0.38;;
77109;SDS011;66062;52.464;16.922;2023-08-06T09:30:02;1.42;;;0.10;;
77109;SDS011;66062;52.464;16.922;2023-08-06T09:32:49;0.50;;;0.30;;
77109;SDS011;66062;52.464;16.922;2023-08-06T09:35:18;1.17;;;0.40;;
77109;SDS011;66062;52.464;16.922;2023-08-06T09:37:43;2.15;;;0.20;;
77109;SDS011;66062;52.464;16.922;2023-08-06T09:40:26;0.82;;;0.32;;
77109;SDS011;66062;52.464;16.922;2023-08-06T09:42:58;1.63;;;0.20;;
77109;SDS011;66062;52.464;16.922;2023-08-06T09:45:34;1.67;;;0.15;;
77109;SDS011;66062;52.464;16.922;2023-08-06T09:48:03;0.68;;;0.20;;
77109;SDS011;66062;52.464;16.922;2023-08-06T09:50:30;2.72;;;1.55;;
77109;SDS011;66062;52.464;16.922;2023-08-06T09:53:00;1.38;;;0.40;;
77109;SDS011;66062;52.464;16.922;2023-08-06T09:55:27;0.80;;;0.20;;
77109;SDS011;66062;52.464;16.922;2023-08-06T10:00:18;0.85;;;0.30;;
77109;SDS011;66062;52.464;16.922;2023-08-06T10:02:45;0.60;;;0.35;;
77109;SDS011;66062;52.464;16.922;2023-08-06T10:05:11;0.90;;;0.10;;
77109;SDS011;66062;52.464;16.922;2023-08-06T10:07:37;0.70;;;0.10;;
77109;SDS011;66062;52.464;16.922;2023-08-06T10:10:04;0.43;;;0.10;;
77109;SDS011;66062;52.464;16.922;2023-08-06T10:12:45;1.05;;;0.10;;
77109;SDS011;66062;52.464;16.922;2023-08-06T10:15:14;0.40;;;0.10;;
77109;SDS011;66062;52.464;16.922;2023-08-06T10:17:43;0.35;;;0.10;;
77109;SDS011;66062;52.464;16.922;2023-08-06T10:20:12;0.40;;;0.10;;
77109;SDS011;66062;52.464;16.922;2023-08-06T10:22:42;0.88;;;0.40;;
77109;SDS011;66062;52.464;16.922;2023-08-06T10:25:09;0.95;;;0.10;;
77109;SDS011;66062;52.464;16.922;2023-08-06T10:27:36;1.27;;;0.10;;
77109;SDS011;66062;52.464;16.922;2023-08-06T10:30:24;0.73;;;0.20;;
77109;SDS011;66062;52.464;16.922;2023-08-06T10:33:01;0.95;;;0.20;;
77109;SDS011;66062;52.464;16.922;2023-08-06T10:41:04;1.38;;;0.20;;
77109;SDS011;66062;52.464;16.922;2023-08-06T10:46:03;1.10;;;0.10;;
77109;SDS011;66062;52.464;16.922;2023-08-06T10:48:34;2.78;;;0.63;;
77109;SDS011;66062;52.464;16.922;2023-08-06T10:51:05;2.45;;;0.20;;
77109;SDS011;66062;52.464;16.922;2023-08-06T10:53:35;0.90;;;0.10;;
77109;SDS011;66062;52.464;16.922;2023-08-06T10:56:01;0.55;;;0.20;;
77109;SDS011;66062;52.464;16.922;2023-08-06T10:58:33;0.93;;;0.32;;
77109;SDS011;66062;52.464;16.922;2023-08-06T11:00:58;1.98;;;0.65;;
77109;SDS011;66062;52.464;16.922;2023-08-06T11:03:24;1.25;;;0.35;;
77109;SDS011;66062;52.464;16.922;2023-08-06T11:05:54;0.88;;;0.25;;
77109;SDS011;66062;52.464;16.922;2023-08-06T11:08:23;0.73;;;0.20;;
77109;SDS011;66062;52.464;16.922;2023-08-06T11:10:52;0.93;;;0.35;;
77109;SDS011;66062;52.464;16.922;2023-08-06T11:13:17;0.25;;;0.03;;
77109;SDS011;66062;52.464;16.922;2023-08-06T11:15:44;0.45;;;0.10;;
77109;SDS011;66062;52.464;16.922;2023-08-06T11:18:10;1.13;;;0.10;;
77109;SDS011;66062;52.464;16.922;2023-08-06T11:20:36;0.68;;;0.10;;
77109;SDS011;66062;52.464;16.922;2023-08-06T11:23:02;5.18;;;3.17;;
77109;SDS011;66062;52.464;16.922;2023-08-06T11:25:27;3.17;;;1.67;;
77109;SDS011;66062;52.464;16.922;2023-08-06T11:27:53;1.17;;;0.38;;
77109;SDS011;66062;52.464;16.922;2023-08-06T11:30:18;2.95;;;0.55;;
77109;SDS011;66062;52.464;16.922;2023-08-06T11:32:47;2.00;;;0.60;;
77109;SDS011;66062;52.464;16.922;2023-08-06T11:35:14;0.85;;;0.20;;
77109;SDS011;66062;52.464;16.922;2023-08-06T11:37:43;1.15;;;0.30;;
77109;SDS011;66062;52.464;16.922;2023-08-06T11:40:11;0.38;;;0.10;;
77109;SDS011;66062;52.464;16.922;2023-08-06T11:42:37;1.30;;;0.20;;
77109;SDS011;66062;52.464;16.922;2023-08-06T11:45:02;1.23;;;0.20;;
77109;SDS011;66062;52.464;16.922;2023-08-06T11:47:29;0.95;;;0.30;;
77109;SDS011;66062;52.464;16.922;2023-08-06T11:49:55;0.60;;;0.40;;
77109;SDS011;66062;52.464;16.922;2023-08-06T11:52:24;1.80;;;0.80;;
77109;SDS011;66062;52.464;16.922;2023-08-06T11:55:03;4.32;;;1.77;;
77109;SDS011;66062;52.464;16.922;2023-08-06T11:57:43;1.65;;;0.40;;
77109;SDS011;66062;52.464;16.922;2023-08-06T12:00:10;1.67;;;0.40;;
77109;SDS011;66062;52.464;16.922;2023-08-06T12:02:40;7.30;;;1.73;;
77109;SDS011;66062;52.464;16.922;2023-08-06T12:05:16;5.13;;;1.95;;
77109;SDS011;66062;52.464;16.922;2023-08-06T12:07:49;2.67;;;0.60;;
77109;SDS011;66062;52.464;16.922;2023-08-06T12:10:16;1.83;;;0.40;;
77109;SDS011;66062;52.464;16.922;2023-08-06T12:12:44;2.00;;;0.30;;
77109;SDS011;66062;52.464;16.922;2023-08-06T12:15:10;1.58;;;0.40;;
77109;SDS011;66062;52.464;16.922;2023-08-06T12:17:36;1.83;;;0.70;;
77109;SDS011;66062;52.464;16.922;2023-08-06T12:20:02;0.73;;;0.40;;
77109;SDS011;66062;52.464;16.922;2023-08-06T12:22:29;1.33;;;0.30;;
77109;SDS011;66062;52.464;16.922;2023-08-06T12:25:00;0.70;;;0.20;;
77109;SDS011;66062;52.464;16.922;2023-08-06T12:27:26;2.25;;;0.50;;
77109;SDS011;66062;52.464;16.922;2023-08-06T12:29:51;0.93;;;0.40;;
77109;SDS011;66062;52.464;16.922;2023-08-06T12:32:17;13.07;;;5.35;;
77109;SDS011;66062;52.464;16.922;2023-08-06T12:34:44;1.25;;;0.77;;
77109;SDS011;66062;52.464;16.922;2023-08-06T12:37:09;0.80;;;0.10;;
77109;SDS011;66062;52.464;16.922;2023-08-06T12:39:35;1.25;;;0.25;;
77109;SDS011;66062;52.464;16.922;2023-08-06T12:42:02;0.50;;;0.10;;
77109;SDS011;66062;52.464;16.922;2023-08-06T12:44:29;1.52;;;0.32;;
77109;SDS011;66062;52.464;16.922;2023-08-06T12:46:54;1.83;;;0.30;;
77109;SDS011;66062;52.464;16.922;2023-08-06T12:49:20;1.83;;;0.22;;
77109;SDS011;66062;52.464;16.922;2023-08-06T12:51:49;0.75;;;0.25;;
77109;SDS011;66062;52.464;16.922;2023-08-06T12:54:18;1.20;;;0.28;;
77109;SDS011;66062;52.464;16.922;2023-08-06T12:56:44;0.80;;;0.60;;
77109;SDS011;66062;52.464;16.922;2023-08-06T13:01:37;0.45;;;0.10;;
77109;SDS011;66062;52.464;16.922;2023-08-06T13:04:03;3.97;;;1.30;;
77109;SDS011;66062;52.464;16.922;2023-08-06T13:06:29;1.05;;;0.25;;
77109;SDS011;66062;52.464;16.922;2023-08-06T13:08:55;0.98;;;0.20;;
77109;SDS011;66062;52.464;16.922;2023-08-06T13:11:21;1.33;;;0.30;;
77109;SDS011;66062;52.464;16.922;2023-08-06T13:13:47;0.95;;;0.20;;
77109;SDS011;66062;52.464;16.922;2023-08-06T13:16:12;2.13;;;0.50;;
77109;SDS011;66062;52.464;16.922;2023-08-06T13:18:38;2.03;;;0.63;;
77109;SDS011;66062;52.464;16.922;2023-08-06T13:21:04;0.60;;;0.10;;
77109;SDS011;66062;52.464;16.922;2023-08-06T13:23:29;2.08;;;0.60;;
77109;SDS011;66062;52.464;16.922;2023-08-06T13:25:55;0.68;;;0.20;;
77109;SDS011;66062;52.464;16.922;2023-08-06T13:28:20;0.70;;;0.20;;
77109;SDS011;66062;52.464;16.922;2023-08-06T13:30:45;0.68;;;0.10;;
77109;SDS011;66062;52.464;16.922;2023-08-06T13:33:11;0.77;;;0.10;;
77109;SDS011;66062;52.464;16.922;2023-08-06T13:35:37;0.43;;;0.10;;
77109;SDS011;66062;52.464;16.922;2023-08-06T13:38:03;0.95;;;0.30;;
77109;SDS011;66062;52.464;16.922;2023-08-06T13:40:29;1.35;;;0.10;;
77109;SDS011;66062;52.464;16.922;2023-08-06T13:42:58;0.98;;;0.13;;
77109;SDS011;66062;52.464;16.922;2023-08-06T13:45:23;0.30;;;0.13;;
77109;SDS011;66062;52.464;16.922;2023-08-06T13:47:49;1.58;;;0.50;;
77109;SDS011;66062;52.464;16.922;2023-08-06T13:50:14;0.68;;;0.20;;
77109;SDS011;66062;52.464;16.922;2023-08-06T13:52:40;1.10;;;0.20;;
77109;SDS011;66062;52.464;16.922;2023-08-06T13:55:05;0.88;;;0.20;;
77109;SDS011;66062;52.464;16.922;2023-08-06T13:57:31;0.45;;;0.20;;
77109;SDS011;66062;52.464;16.922;2023-08-06T13:59:58;1.25;;;0.43;;
77109;SDS011;66062;52.464;16.922;2023-08-06T14:02:23;2.88;;;0.20;;
77109;SDS011;66062;52.464;16.922;2023-08-06T14:04:48;1.15;;;0.20;;
77109;SDS011;66062;52.464;16.922;2023-08-06T14:07:14;0.50;;;0.17;;
77109;SDS011;66062;52.464;16.922;2023-08-06T14:09:39;1.95;;;0.70;;
77109;SDS011;66062;52.464;16.922;2023-08-06T14:12:05;1.85;;;0.65;;
77109;SDS011;66062;52.464;16.922;2023-08-06T14:14:31;0.40;;;0.10;;
77109;SDS011;66062;52.464;16.922;2023-08-06T14:16:56;0.45;;;0.10;;
77109;SDS011;66062;52.464;16.922;2023-08-06T14:19:22;0.85;;;0.20;;
77109;SDS011;66062;52.464;16.922;2023-08-06T14:21:48;1.08;;;0.30;;
77109;SDS011;66062;52.464;16.922;2023-08-06T14:24:14;0.95;;;0.30;;
77109;SDS011;66062;52.464;16.922;2023-08-06T14:26:40;1.10;;;0.32;;
77109;SDS011;66062;52.464;16.922;2023-08-06T14:29:08;1.15;;;0.30;;
77109;SDS011;66062;52.464;16.922;2023-08-06T14:31:33;0.98;;;0.30;;
77109;SDS011;66062;52.464;16.922;2023-08-06T14:33:58;1.02;;;0.20;;
77109;SDS011;66062;52.464;16.922;2023-08-06T14:36:24;1.02;;;0.30;;
77109;SDS011;66062;52.464;16.922;2023-08-06T14:38:49;2.92;;;0.75;;
77109;SDS011;66062;52.464;16.922;2023-08-06T14:41:15;0.80;;;0.20;;
77109;SDS011;66062;52.464;16.922;2023-08-06T14:43:40;0.73;;;0.20;;
77109;SDS011;66062;52.464;16.922;2023-08-06T14:46:06;0.55;;;0.13;;
77109;SDS011;66062;52.464;16.922;2023-08-06T14:48:34;2.05;;;0.50;;
77109;SDS011;66062;52.464;16.922;2023-08-06T14:51:00;0.32;;;0.10;;
77109;SDS011;66062;52.464;16.922;2023-08-06T14:53:26;1.65;;;0.28;;